Gradyville, KY (42742)

10:35 AM CDT on May 25, 2015 (GMT -0500)
KKYCOLUM2 | | Change Station
CLOSE
Current Station
Personal Weather Station
Location: Columbia, KY
Elevation: 1033 ft
Nearby Weather Stations

Elev 1033 ft 37.03 °N, 85.39 °W | Updated 17 seconds ago

Overcast
Overcast
73.1 °F
Feels Like 75 °F
N
2.0
Wind Variable Wind from South
Gusts 14.0 mph

Today
High -- | Low -- °F
--% Chance of Precip.
Yesterday
High -- | Low -- °F
Precip. -- in
5:26 AM 7:50 PM
Waxing Crescent, 49% visible
Pressure 30.19 in
Visibility 10.0 miles
Clouds Scattered Clouds 3300 ft
Scattered Clouds 4100 ft
Scattered Clouds 4700 ft
Heat Index 75 °F
Dew Point 63 °F
Humidity 70%
Rainfall 0.00 in
Snow Depth Not available.
UV 2.5 out of 12
Pollen 5.90 out of 12
Air Quality Not available.
Flu Activity Sporadic
METAR KGLW 251510Z AUTO 20005KT 10SM SCT033 SCT041 SCT047 20/18 A3019 RMK AO2 T02010183

More Conditions Fewer Conditions

Pressure 30.19 in
Visibility 10.0 miles
Clouds Scattered Clouds 3300 ft
Scattered Clouds 4100 ft
Scattered Clouds 4700 ft
Heat Index 75 °F
Dew Point 63 °F
Humidity 70%
Rainfall 0.00 in
Snow Depth Not available.
UV 2.5 out of 12
Pollen 5.90 out of 12
Air Quality Not available.
Flu Activity Sporadic
METAR KGLW 251510Z AUTO 20005KT 10SM SCT033 SCT041 SCT047 20/18 A3019 RMK AO2 T02010183

More Conditions Fewer Conditions

10-Day Weather Forecast

Almanac

Astronomy

May. 25, 2015 Rise Set
Actual Time
Civil Twilight
Nautical Twilight
Astronomical Twilight
Moon
Length of Visible Light
Length of Day
Tomorrow will be .
, % of the Moon is Illuminated

Today's Extremes

State Highs State Lows

Community

WunderPhotos

Upload Photos

1,824,030 photos uploaded!

WunderBlogs® & News

Nearby

Air Quality

  Air Quality AQ Index Pollutant
Not available.

Snow Depth

Station Depth Elevation

Earthquake Activity

City Distance Mag. Time & Date
Minimum magnitude displayed is 2.5.

Coastal Water Temperatures

Place Temperature

Stations

Nearby Weather Stations

Station Location Temp. Windchill Dew Point Humidity Wind Precip. Elev Updated Type